Time;durP1;ratioP1;P1;durP2;ratioP2;P2;SDS_P1;SDS_P2;PMS_P1;PMS_P2;Temp;Humidity;BMP_temperature;BMP_pressure;BME280_temperature;BME280_humidity;BME280_pressure;Samples;Min_cycle;Max_cycle;Signal;HPM_P1;HPM_P2
2023/01/21 00:01:01;;;;;;;21.80;12.07;;;1.00;99.90;;;;;;5094236;27;20047;-80
2023/01/21 00:03:27;;;;;;;28.45;13.18;;;1.00;99.90;;;;;;5063363;27;20058;-82
2023/01/21 00:06:01;;;;;;;27.65;13.50;;;-1.00;99.90;;;;;;5086639;27;20042;-82
2023/01/21 00:08:28;;;;;;;25.63;12.30;;;0.80;99.90;;;;;;5116829;27;20413;-82
2023/01/21 00:10:53;;;;;;;27.13;12.38;;;1.00;99.90;;;;;;5109076;27;20053;-81
2023/01/21 00:13:20;;;;;;;28.42;14.52;;;-1.20;99.90;;;;;;5110657;27;20043;-82
2023/01/21 00:15:49;;;;;;;25.52;13.52;;;-1.20;99.90;;;;;;5110107;28;20040;-82
2023/01/21 00:18:14;;;;;;;27.10;14.30;;;0.60;99.90;;;;;;5100617;28;20055;-82
2023/01/21 00:20:40;;;;;;;25.80;13.50;;;0.10;99.90;;;;;;5100233;28;20702;-82
2023/01/21 00:23:06;;;;;;;27.10;12.90;;;0.70;99.90;;;;;;5077374;28;20465;-81
2023/01/21 00:25:32;;;;;;;31.52;14.25;;;0.20;99.90;;;;;;5094184;28;20039;-82
2023/01/21 00:27:59;;;;;;;29.73;13.85;;;1.00;99.90;;;;;;5080619;28;20046;-82
2023/01/21 00:30:24;;;;;;;30.30;13.63;;;0.90;99.90;;;;;;5084692;27;20367;-80
2023/01/21 00:32:51;;;;;;;24.48;12.57;;;-1.40;99.90;;;;;;5083476;28;20166;-81
2023/01/21 00:35:17;;;;;;;30.58;13.63;;;0.90;99.90;;;;;;5070340;28;20154;-82
2023/01/21 00:37:43;;;;;;;28.83;13.82;;;-1.20;99.90;;;;;;5062239;28;20047;-81
2023/01/21 00:40:10;;;;;;;28.73;14.07;;;-0.90;99.90;;;;;;5081093;28;20511;-82
2023/01/21 00:42:36;;;;;;;30.85;13.38;;;-1.60;99.90;;;;;;5084161;28;20044;-82
2023/01/21 00:45:02;;;;;;;27.15;13.70;;;0.20;99.90;;;;;;5085287;28;20051;-81
2023/01/21 00:47:28;;;;;;;29.83;14.38;;;-1.60;99.90;;;;;;5098053;28;20055;-81
2023/01/21 00:49:54;;;;;;;34.47;14.13;;;-1.40;99.90;;;;;;5068312;28;20500;-81
2023/01/21 00:52:22;;;;;;;31.02;15.38;;;-0.10;99.90;;;;;;5082066;28;20048;-82
2023/01/21 00:54:48;;;;;;;32.85;14.77;;;-0.60;99.90;;;;;;5097337;28;20042;-82
2023/01/21 00:57:15;;;;;;;31.30;14.20;;;0.60;99.90;;;;;;5064231;28;20516;-82
2023/01/21 00:59:41;;;;;;;29.70;14.48;;;0.50;99.90;;;;;;5064190;28;20874;-81
2023/01/21 01:02:08;;;;;;;29.40;13.98;;;0.50;99.90;;;;;;5110517;27;20087;-83
2023/01/21 01:04:34;;;;;;;33.17;14.15;;;0.10;99.90;;;;;;5069857;27;20371;-82
2023/01/21 01:07:00;;;;;;;29.10;15.13;;;-1.70;99.90;;;;;;5084734;27;20603;-80
2023/01/21 01:09:26;;;;;;;30.85;15.38;;;-1.80;99.90;;;;;;5102768;27;20077;-81
2023/01/21 01:11:52;;;;;;;35.30;15.98;;;-2.50;99.90;;;;;;5104799;27;22224;-82
2023/01/21 01:14:18;;;;;;;31.17;15.38;;;-0.20;99.90;;;;;;5082741;27;20511;-82
2023/01/21 01:16:43;;;;;;;31.45;14.70;;;-1.30;99.90;;;;;;5069675;27;20096;-80
2023/01/21 01:19:11;;;;;;;32.83;15.00;;;-0.80;99.90;;;;;;5087089;27;20055;-80
2023/01/21 01:21:37;;;;;;;31.92;14.98;;;-1.30;99.90;;;;;;5083170;27;20126;-81
2023/01/21 01:24:04;;;;;;;28.10;14.02;;;-1.90;99.90;;;;;;5087866;27;20575;-82
2023/01/21 01:26:30;;;;;;;35.55;15.95;;;-2.00;99.90;;;;;;5071639;27;20044;-81
2023/01/21 01:28:56;;;;;;;31.90;14.45;;;0.40;99.90;;;;;;5103313;27;20088;-81
2023/01/21 01:31:22;;;;;;;34.08;14.80;;;-2.40;99.90;;;;;;5114560;27;20046;-83
2023/01/21 01:33:48;;;;;;;30.88;14.40;;;-1.80;99.90;;;;;;5106234;27;20047;-81
2023/01/21 01:36:17;;;;;;;33.92;15.55;;;-2.00;99.90;;;;;;5083561;27;20091;-81
2023/01/21 01:38:43;;;;;;;30.80;15.82;;;0.10;99.90;;;;;;5105082;27;20043;-81
2023/01/21 01:41:24;;;;;;;31.40;14.68;;;0.00;99.90;;;;;;5108272;27;20828;-82
2023/01/21 01:44:00;;;;;;;36.57;15.87;;;-2.00;99.90;;;;;;5108244;27;20046;-81
2023/01/21 01:46:28;;;;;;;33.95;15.82;;;-2.00;99.90;;;;;;5101129;27;20699;-82
2023/01/21 01:49:02;;;;;;;31.85;15.02;;;0.20;99.90;;;;;;5115993;27;20449;-80
2023/01/21 01:51:34;;;;;;;30.67;14.63;;;-2.00;99.90;;;;;;5107305;27;20142;-81
2023/01/21 01:54:01;;;;;;;35.75;15.32;;;-1.70;99.90;;;;;;5116531;27;20062;-80
2023/01/21 01:56:29;;;;;;;36.03;15.80;;;-0.20;99.90;;;;;;5102088;27;20051;-82
2023/01/21 01:58:55;;;;;;;28.88;13.93;;;0.20;99.90;;;;;;5105894;27;20403;-81
2023/01/21 02:01:21;;;;;;;28.60;14.30;;;-0.10;99.90;;;;;;5086545;27;20472;-81
2023/01/21 02:03:55;;;;;;;39.25;16.23;;;-0.50;99.90;;;;;;5091459;27;20886;-80
2023/01/21 02:06:22;;;;;;;31.67;14.75;;;-2.00;99.90;;;;;;5105022;27;20122;-81
2023/01/21 02:08:48;;;;;;;36.03;17.63;;;-0.90;99.90;;;;;;5090270;27;20585;-80
2023/01/21 02:11:16;;;;;;;38.05;15.40;;;-1.30;99.90;;;;;;5099151;27;20050;-81
2023/01/21 02:13:55;;;;;;;35.97;16.83;;;0.10;99.90;;;;;;5116628;27;20581;-81
2023/01/21 02:16:24;;;;;;;35.78;15.93;;;-1.90;99.90;;;;;;5108854;27;20412;-80
2023/01/21 02:19:04;;;;;;;37.85;16.42;;;-1.50;99.90;;;;;;5107456;27;20070;-81
2023/01/21 02:21:55;;;;;;;35.30;16.85;;;-1.80;99.90;;;;;;5100003;27;20046;-81
2023/01/21 02:25:05;;;;;;;35.25;16.27;;;-1.70;99.90;;;;;;5107407;27;20098;-82
2023/01/21 02:27:50;;;;;;;34.70;16.30;;;-1.70;99.90;;;;;;5098532;27;20504;-82
2023/01/21 02:30:36;;;;;;;33.17;15.95;;;-0.10;99.90;;;;;;5105364;27;20088;-81
2023/01/21 02:33:39;;;;;;;35.55;15.75;;;-1.40;99.90;;;;;;5093601;27;20120;-81
2023/01/21 02:36:26;;;;;;;42.38;16.70;;;-1.80;99.90;;;;;;5100367;27;20050;-81
2023/01/21 02:39:08;;;;;;;32.88;14.93;;;-1.80;99.90;;;;;;5115066;27;20121;-81
2023/01/21 02:41:40;;;;;;;38.40;16.98;;;0.20;99.90;;;;;;5113779;27;20492;-81
2023/01/21 02:44:16;;;;;;;34.85;15.20;;;-1.80;99.90;;;;;;5098677;27;20094;-80
2023/01/21 02:46:55;;;;;;;34.80;15.43;;;-1.80;99.90;;;;;;5131424;27;20047;-80
2023/01/21 02:49:35;;;;;;;39.15;16.15;;;-1.80;99.90;;;;;;5099602;27;22349;-81
2023/01/21 02:52:00;;;;;;;33.90;16.02;;;-0.50;99.90;;;;;;5115296;27;20118;-80
2023/01/21 02:54:38;;;;;;;31.20;14.55;;;-1.60;99.90;;;;;;5115454;27;20087;-81
2023/01/21 02:57:10;;;;;;;31.42;16.60;;;-1.90;99.90;;;;;;5105085;27;20046;-81
2023/01/21 02:59:38;;;;;;;35.30;15.93;;;-2.00;99.90;;;;;;5103701;27;20491;-81
2023/01/21 03:02:04;;;;;;;31.55;16.00;;;-1.80;99.90;;;;;;5099341;27;20047;-82
2023/01/21 03:05:03;;;;;;;34.50;16.42;;;-0.60;99.90;;;;;;5097564;27;20495;-82
2023/01/21 03:07:32;;;;;;;32.35;15.73;;;-1.80;99.90;;;;;;5084785;27;20062;-82
2023/01/21 03:10:26;;;;;;;33.10;15.32;;;-1.40;99.90;;;;;;5100558;27;20125;-81
2023/01/21 03:19:04;;;;;;;31.88;15.00;;;-1.80;99.90;;;;;;5103032;27;20085;-80
2023/01/21 03:21:31;;;;;;;36.33;17.20;;;-1.00;99.90;;;;;;5102375;27;20047;-82
2023/01/21 03:23:58;;;;;;;39.28;18.17;;;-0.60;99.90;;;;;;5081371;27;20130;-80
2023/01/21 03:26:34;;;;;;;33.50;15.75;;;-0.10;99.90;;;;;;5083645;27;20574;-80
2023/01/21 03:29:04;;;;;;;;;;;0.30;99.90;;;;;;5103982;27;20050;-81
2023/01/21 03:31:33;;;;;;;36.17;16.20;;;-1.50;99.90;;;;;;5100126;27;19923;-83
2023/01/21 03:34:03;;;;;;;35.25;16.25;;;0.50;99.90;;;;;;5096887;27;20391;-80
2023/01/21 03:36:40;;;;;;;36.72;16.10;;;-0.40;99.90;;;;;;5097882;27;20175;-80
2023/01/21 03:39:15;;;;;;;43.25;17.17;;;-1.60;99.90;;;;;;5106608;27;20133;-81
2023/01/21 03:41:40;;;;;;;30.15;14.55;;;-0.60;99.90;;;;;;5114701;27;20046;-81
2023/01/21 03:44:06;;;;;;;38.20;17.15;;;0.20;99.90;;;;;;5087560;27;20448;-81
2023/01/21 03:46:38;;;;;;;38.60;17.95;;;0.10;99.90;;;;;;5098992;27;20062;-82
2023/01/21 03:49:10;;;;;;;35.33;15.75;;;-0.90;99.90;;;;;;5115106;27;20039;-80
2023/01/21 03:51:40;;;;;;;39.30;17.85;;;-1.50;99.90;;;;;;5097747;27;20073;-81
2023/01/21 03:54:06;;;;;;;38.45;17.92;;;0.10;99.90;;;;;;5114323;27;20046;-81
2023/01/21 03:56:32;;;;;;;36.58;17.30;;;0.10;99.90;;;;;;5099323;27;20047;-82
2023/01/21 03:58:57;;;;;;;31.58;15.25;;;-1.50;99.90;;;;;;5085849;27;20046;-80
2023/01/21 04:01:23;;;;;;;41.70;17.60;;;-0.60;99.90;;;;;;5101137;27;20384;-80
2023/01/21 04:03:55;;;;;;;32.47;14.98;;;0.40;99.90;;;;;;5099172;27;20046;-80
2023/01/21 04:06:22;;;;;;;39.10;17.00;;;-1.40;99.90;;;;;;5084191;27;20047;-79
2023/01/21 04:08:47;;;;;;;37.88;17.02;;;-1.50;99.90;;;;;;5103693;27;20506;-80
2023/01/21 04:11:13;;;;;;;35.85;17.10;;;0.20;99.90;;;;;;5113761;27;20043;-80
2023/01/21 04:13:39;;;;;;;35.00;16.50;;;0.40;99.90;;;;;;5070951;27;20039;-79
2023/01/21 04:16:06;;;;;;;34.92;16.08;;;-1.50;99.90;;;;;;5082664;27;20042;-80
2023/01/21 04:18:32;;;;;;;33.05;16.35;;;-1.50;99.90;;;;;;5114930;27;20034;-81
2023/01/21 04:20:58;;;;;;;36.10;16.00;;;-0.20;99.90;;;;;;5096998;27;20063;-80
2023/01/21 04:23:24;;;;;;;35.05;15.88;;;0.20;99.90;;;;;;5083678;27;20066;-81
2023/01/21 04:25:50;;;;;;;33.95;15.90;;;-1.30;99.90;;;;;;5102461;27;20035;-79
2023/01/21 04:28:17;;;;;;;34.15;15.75;;;-1.50;99.90;;;;;;5083848;27;20226;-80
2023/01/21 04:30:43;;;;;;;33.08;15.20;;;-1.50;99.90;;;;;;5114763;27;21029;-83
2023/01/21 04:33:08;;;;;;;34.78;16.33;;;0.50;99.90;;;;;;5103090;27;20051;-80
2023/01/21 04:35:35;;;;;;;31.23;15.32;;;-1.20;99.90;;;;;;5088316;27;20066;-81
2023/01/21 04:38:01;;;;;;;37.60;16.13;;;0.10;99.90;;;;;;5101503;27;20047;-81
2023/01/21 04:40:27;;;;;;;36.85;16.17;;;0.80;99.90;;;;;;5118951;27;20081;-81
2023/01/21 04:42:52;;;;;;;36.08;15.98;;;-1.40;99.90;;;;;;5101849;27;20055;-81
2023/01/21 04:45:18;;;;;;;37.83;17.13;;;-0.60;99.90;;;;;;5082473;27;20042;-83
2023/01/21 04:47:45;;;;;;;34.97;17.08;;;0.50;99.90;;;;;;5115235;27;20039;-80
2023/01/21 04:50:12;;;;;;;37.55;16.08;;;-1.30;99.90;;;;;;5115726;27;20038;-80
2023/01/21 04:52:39;;;;;;;36.28;17.35;;;-0.70;99.90;;;;;;5107124;27;20050;-82
2023/01/21 04:55:05;;;;;;;37.35;18.17;;;0.50;99.90;;;;;;5108246;27;20062;-80
2023/01/21 04:57:31;;;;;;;41.28;17.13;;;-1.20;99.90;;;;;;5117394;27;20560;-80
2023/01/21 04:59:57;;;;;;;43.30;19.00;;;-0.10;99.90;;;;;;5101235;27;20039;-80
2023/01/21 05:02:23;;;;;;;42.63;18.98;;;-1.10;99.90;;;;;;5087595;27;20057;-82
2023/01/21 05:04:48;;;;;;;45.38;18.90;;;-0.70;99.90;;;;;;5067572;27;20043;-82
2023/01/21 05:07:15;;;;;;;42.53;18.00;;;-0.40;99.90;;;;;;5115490;27;20049;-80
2023/01/21 05:09:41;;;;;;;41.45;18.40;;;;;;;;;;5074462;27;20046;-81
2023/01/21 05:12:08;;;;;;;39.13;17.65;;;-1.00;99.90;;;;;;5103526;27;20038;-81
2023/01/21 05:14:34;;;;;;;37.75;17.65;;;-0.40;99.90;;;;;;5086328;27;20432;-80
2023/01/21 05:17:00;;;;;;;40.38;17.58;;;0.10;99.90;;;;;;5090010;27;20202;-80
2023/01/21 05:19:25;;;;;;;35.30;16.25;;;-1.00;99.90;;;;;;5105932;27;20520;-81
2023/01/21 05:21:52;;;;;;;32.25;16.25;;;-0.20;99.90;;;;;;5117899;27;20384;-80
2023/01/21 05:24:19;;;;;;;35.03;15.73;;;-0.90;99.90;;;;;;5111613;27;20202;-81
2023/01/21 05:26:44;;;;;;;36.25;17.63;;;-0.90;99.90;;;;;;5094355;27;20385;-81
2023/01/21 05:29:10;;;;;;;37.15;16.05;;;-1.00;99.90;;;;;;5106105;27;20049;-80
2023/01/21 05:31:40;;;;;;;39.40;18.20;;;-0.90;99.90;;;;;;5123535;27;20096;-83
2023/01/21 05:34:05;;;;;;;36.33;17.15;;;0.10;99.90;;;;;;5091756;27;20038;-81
2023/01/21 05:36:33;;;;;;;39.28;18.13;;;-0.90;99.90;;;;;;5089603;27;20051;-81
2023/01/21 05:38:58;;;;;;;40.50;18.40;;;-1.90;99.90;;;;;;5087518;27;20054;-81
2023/01/21 05:41:24;;;;;;;39.88;17.45;;;-0.70;99.90;;;;;;5106251;27;20051;-80
2023/01/21 05:43:50;;;;;;;35.10;17.15;;;0.70;99.90;;;;;;5118074;27;20047;-81
2023/01/21 05:46:16;;;;;;;36.88;16.45;;;-0.80;99.90;;;;;;5072143;27;20050;-80
2023/01/21 05:48:42;;;;;;;34.38;16.25;;;-0.80;99.90;;;;;;5099096;27;20108;-82
2023/01/21 05:51:08;;;;;;;35.40;17.25;;;-0.80;99.90;;;;;;5084101;27;20169;-80
2023/01/21 05:53:34;;;;;;;34.67;16.13;;;-0.90;99.90;;;;;;5118173;27;20043;-82
2023/01/21 05:56:00;;;;;;;37.47;17.95;;;-0.80;99.90;;;;;;5086830;27;20054;-81
2023/01/21 05:58:26;;;;;;;40.88;17.42;;;1.20;99.90;;;;;;5101976;27;20050;-81
2023/01/21 06:00:53;;;;;;;35.33;16.45;;;-0.70;99.90;;;;;;5099886;27;20082;-80
2023/01/21 06:03:19;;;;;;;31.95;15.93;;;1.20;99.90;;;;;;5084602;27;20064;-80
2023/01/21 06:05:47;;;;;;;32.67;15.52;;;-0.70;99.90;;;;;;5099042;27;20895;-81
2023/01/21 06:08:13;;;;;;;35.10;15.80;;;-0.40;99.90;;;;;;5106205;27;20043;-80
2023/01/21 06:10:38;;;;;;;37.75;16.75;;;0.30;99.90;;;;;;5084507;27;20952;-79
2023/01/21 06:13:04;;;;;;;37.45;17.35;;;0.30;99.90;;;;;;5115653;27;20061;-81
2023/01/21 06:15:32;;;;;;;36.15;16.50;;;1.10;99.90;;;;;;5116439;27;20046;-83
2023/01/21 06:17:59;;;;;;;38.83;16.63;;;-0.40;99.90;;;;;;5101696;27;20058;-82
2023/01/21 06:20:28;;;;;;;43.38;18.73;;;-0.50;99.90;;;;;;5105860;27;20093;-82
2023/01/21 06:22:54;;;;;;;40.92;18.88;;;-0.50;99.90;;;;;;5116400;27;20054;-80
2023/01/21 06:25:19;;;;;;;39.88;17.52;;;-2.10;99.90;;;;;;5099768;27;20053;-82
2023/01/21 06:27:45;;;;;;;40.30;17.73;;;1.00;99.90;;;;;;5100843;27;20107;-82
2023/01/21 06:30:16;;;;;;;35.22;15.75;;;1.10;99.90;;;;;;5099715;27;20138;-82
2023/01/21 06:32:42;;;;;;;36.72;17.15;;;-0.40;99.90;;;;;;5068083;27;20059;-81
2023/01/21 06:35:08;;;;;;;39.83;19.40;;;-2.00;99.90;;;;;;5074002;27;20046;-80
2023/01/21 06:37:34;;;;;;;38.75;18.45;;;-0.10;99.90;;;;;;5091155;27;20083;-80
2023/01/21 06:40:05;;;;;;;43.78;18.48;;;-0.30;99.90;;;;;;5106681;27;20066;-80
2023/01/21 06:42:35;;;;;;;41.55;18.67;;;-0.40;99.90;;;;;;5102573;27;20081;-82
2023/01/21 06:45:02;;;;;;;40.00;18.83;;;-0.30;99.90;;;;;;5108663;27;20050;-83
2023/01/21 06:47:28;;;;;;;41.08;17.63;;;1.20;99.90;;;;;;5107416;27;20047;-82
2023/01/21 06:49:59;;;;;;;38.38;17.52;;;0.60;99.90;;;;;;5092961;27;20095;-83
2023/01/21 06:52:28;;;;;;;42.42;19.40;;;-0.30;99.90;;;;;;5106455;27;21494;-85
2023/01/21 06:54:54;;;;;;;44.72;19.02;;;;;;;;;;5107738;27;20046;-83
2023/01/21 06:57:22;;;;;;;40.67;18.83;;;;;;;;;;5123858;27;20051;-83
2023/01/21 06:59:48;;;;;;;38.13;16.88;;;-0.20;99.90;;;;;;5107787;27;20054;-85
2023/01/21 07:02:14;;;;;;;44.28;19.10;;;-0.20;99.90;;;;;;5091134;27;20043;-85
2023/01/21 07:04:40;;;;;;;39.42;17.83;;;0.20;99.90;;;;;;5092788;27;20050;-83
2023/01/21 07:07:06;;;;;;;38.70;17.88;;;-0.30;99.90;;;;;;5108755;27;20039;-82
2023/01/21 07:09:33;;;;;;;39.25;18.73;;;-0.20;99.90;;;;;;5095101;27;20049;-84
2023/01/21 07:11:59;;;;;;;47.15;19.90;;;-0.20;99.90;;;;;;5109960;27;20054;-83
2023/01/21 07:14:25;;;;;;;45.10;19.70;;;0.00;99.90;;;;;;5073216;27;20108;-80
2023/01/21 07:16:50;;;;;;;45.45;19.83;;;1.10;99.90;;;;;;5070265;27;20042;-84
2023/01/21 07:19:16;;;;;;;46.30;20.83;;;-1.00;99.90;;;;;;5103798;27;20121;-82
2023/01/21 07:21:43;;;;;;;43.63;20.40;;;;;;;;;;5099363;27;20043;-80
2023/01/21 07:24:09;;;;;;;44.45;20.20;;;;;;;;;;5084601;27;20045;-84
2023/01/21 07:26:36;;;;;;;46.67;20.20;;;-0.20;99.90;;;;;;5106117;27;21247;-82
2023/01/21 07:29:05;;;;;;;43.13;19.95;;;-1.40;99.90;;;;;;5102117;27;20184;-83
2023/01/21 07:31:37;;;;;;;47.28;19.60;;;-0.10;99.90;;;;;;5099423;27;20059;-83
2023/01/21 07:34:04;;;;;;;43.38;19.35;;;-0.20;99.90;;;;;;5097425;27;20066;-83
2023/01/21 07:36:36;;;;;;;42.05;19.92;;;0.80;99.90;;;;;;5094211;27;20139;-81
2023/01/21 07:39:01;;;;;;;40.10;19.42;;;-0.20;99.90;;;;;;5077625;27;20501;-81
2023/01/21 07:41:27;;;;;;;42.75;19.92;;;1.50;99.90;;;;;;5083125;27;20054;-80
2023/01/21 07:43:53;;;;;;;42.38;19.27;;;-1.50;99.90;;;;;;5110367;27;20481;-81
2023/01/21 07:46:21;;;;;;;45.67;21.25;;;-0.10;99.90;;;;;;5095749;28;20119;-82
2023/01/21 07:48:48;;;;;;;48.17;19.95;;;-0.20;99.90;;;;;;5096661;27;20055;-81
2023/01/21 07:51:14;;;;;;;44.60;20.65;;;-0.10;99.90;;;;;;5108502;27;20134;-81
2023/01/21 07:53:40;;;;;;;47.58;20.75;;;0.20;99.90;;;;;;5102471;27;20126;-80
2023/01/21 07:56:06;;;;;;;45.65;20.63;;;1.20;99.90;;;;;;5085792;27;20047;-81
2023/01/21 07:58:32;;;;;;;42.15;20.33;;;-0.10;99.90;;;;;;5093625;27;20378;-81
2023/01/21 08:01:01;;;;;;;44.08;19.05;;;-0.10;99.90;;;;;;5084654;27;20044;-81
2023/01/21 08:03:27;;;;;;;48.90;21.00;;;0.90;99.90;;;;;;5096472;27;20058;-81
2023/01/21 08:05:53;;;;;;;37.70;18.30;;;1.00;99.90;;;;;;5068708;27;20042;-81
2023/01/21 08:08:18;;;;;;;44.65;20.83;;;0.00;99.90;;;;;;5081617;28;20042;-81
2023/01/21 08:10:53;;;;;;;41.92;20.45;;;-0.20;99.90;;;;;;5096431;28;20112;-81
2023/01/21 08:13:19;;;;;;;44.05;20.58;;;-0.20;99.90;;;;;;5110711;27;20051;-81
2023/01/21 08:15:49;;;;;;;46.63;19.58;;;-0.20;99.90;;;;;;5113158;27;20776;-84
2023/01/21 08:18:15;;;;;;;38.50;18.50;;;-0.10;99.90;;;;;;5105724;28;20104;-83
2023/01/21 08:20:40;;;;;;;40.40;18.75;;;-0.20;99.90;;;;;;5102526;28;20128;-82
2023/01/21 08:23:07;;;;;;;37.78;17.65;;;0.00;99.90;;;;;;5100941;28;20051;-83
2023/01/21 08:25:35;;;;;;;41.70;18.90;;;;;;;;;;5086772;28;20039;-86
2023/01/21 08:28:04;;;;;;;39.58;19.73;;;-0.30;99.90;;;;;;5102085;28;20537;-85
2023/01/21 08:30:38;;;;;;;33.67;17.52;;;0.10;99.90;;;;;;5106260;28;20535;-85
2023/01/21 08:33:07;;;;;;;45.50;19.05;;;-0.40;99.90;;;;;;5104500;28;20098;-85
2023/01/21 08:35:46;;;;;;;44.72;20.08;;;-0.30;99.90;;;;;;5081858;28;20480;-85
2023/01/21 08:38:14;;;;;;;41.65;19.60;;;-0.20;99.90;;;;;;5106253;28;20063;-82
2023/01/21 08:40:40;;;;;;;42.35;19.55;;;1.20;99.90;;;;;;5111401;28;20048;-80
2023/01/21 08:43:08;;;;;;;41.80;19.02;;;1.20;99.90;;;;;;5084082;27;20055;-78
2023/01/21 08:45:34;;;;;;;41.22;19.40;;;-0.30;99.90;;;;;;5117963;28;20047;-80
2023/01/21 08:48:02;;;;;;;43.55;20.58;;;-0.30;99.90;;;;;;5095101;28;20055;-81
2023/01/21 08:50:28;;;;;;;40.75;18.88;;;;;;;;;;5110655;28;20055;-81
2023/01/21 08:52:55;;;;;;;45.40;20.33;;;;;;;;;;5109167;28;20492;-80
2023/01/21 08:55:25;;;;;;;55.78;26.10;;;-0.20;99.90;;;;;;5100236;28;20526;-80
2023/01/21 08:57:54;;;;;;;49.58;25.40;;;0.50;99.90;;;;;;5098168;28;20044;-80
2023/01/21 09:00:23;;;;;;;46.80;23.23;;;0.20;99.90;;;;;;5103429;28;20054;-84
2023/01/21 09:02:50;;;;;;;46.67;21.90;;;-0.20;99.90;;;;;;5106804;28;20069;-85
2023/01/21 09:05:19;;;;;;;43.75;21.63;;;-1.50;99.90;;;;;;5086382;28;20047;-85
2023/01/21 09:07:45;;;;;;;51.10;22.13;;;-0.20;99.90;;;;;;5116130;28;20109;-86
2023/01/21 09:10:12;;;;;;;52.13;23.17;;;1.20;99.90;;;;;;5100409;28;20047;-85
2023/01/21 09:12:39;;;;;;;48.00;22.35;;;0.50;99.90;;;;;;5088527;28;20427;-85
2023/01/21 09:15:06;;;;;;;48.70;22.73;;;0.30;99.90;;;;;;5099959;28;20143;-85
2023/01/21 09:17:33;;;;;;;52.95;23.48;;;-1.50;99.90;;;;;;5104430;28;20043;-84
2023/01/21 09:19:58;;;;;;;42.13;20.40;;;2.20;99.90;;;;;;5104246;27;20043;-87
2023/01/21 09:22:27;;;;;;;43.78;21.02;;;1.70;99.90;;;;;;5104925;27;20053;-86
2023/01/21 09:24:52;;;;;;;50.63;20.25;;;0.30;99.90;;;;;;5104729;27;20096;-86
2023/01/21 09:27:19;;;;;;;44.45;21.17;;;1.00;99.90;;;;;;5096523;27;20047;-85
2023/01/21 09:29:45;;;;;;;48.67;21.83;;;0.30;99.90;;;;;;5114978;27;20378;-85
2023/01/21 09:32:11;;;;;;;42.28;21.60;;;1.00;99.90;;;;;;5119322;27;20043;-84
2023/01/21 09:34:46;;;;;;;47.00;22.20;;;0.50;99.90;;;;;;5109296;27;20051;-84
2023/01/21 09:37:18;;;;;;;44.13;20.27;;;0.60;99.90;;;;;;5068105;27;20036;-85
2023/01/21 09:39:44;;;;;;;48.40;22.33;;;0.20;99.90;;;;;;5103047;27;20054;-84
2023/01/21 09:42:20;;;;;;;44.72;21.08;;;0.20;99.90;;;;;;5117303;27;20043;-86
2023/01/21 09:44:50;;;;;;;45.88;21.58;;;0.20;99.90;;;;;;5104763;27;20124;-85
2023/01/21 09:47:23;;;;;;;46.63;20.92;;;0.30;99.90;;;;;;5118841;27;20151;-85
2023/01/21 09:49:55;;;;;;;45.53;21.00;;;0.40;99.90;;;;;;5117318;27;20070;-85
2023/01/21 09:52:29;;;;;;;46.55;21.55;;;0.50;99.90;;;;;;5106872;27;20048;-85
2023/01/21 09:54:56;;;;;;;46.38;21.23;;;0.40;99.90;;;;;;5109043;27;20257;-86
2023/01/21 09:57:40;;;;;;;40.05;20.50;;;0.50;99.90;;;;;;5107809;27;20619;-84
2023/01/21 10:00:33;;;;;;;45.40;20.83;;;0.60;99.90;;;;;;5109118;27;20051;-90
2023/01/21 10:03:15;;;;;;;44.55;21.67;;;0.70;99.90;;;;;;5087312;27;20130;-79
2023/01/21 10:06:11;;;;;;;42.42;21.20;;;0.70;99.90;;;;;;5108020;27;20044;-83
2023/01/21 10:09:02;;;;;;;47.70;20.90;;;0.80;99.90;;;;;;5106437;27;20403;-83
2023/01/21 10:11:37;;;;;;;48.13;20.63;;;1.30;99.90;;;;;;5110684;27;20043;-81
2023/01/21 10:14:21;;;;;;;51.53;21.70;;;1.10;99.90;;;;;;5119069;27;20620;-82
2023/01/21 10:17:13;;;;;;;55.20;23.08;;;1.40;99.90;;;;;;5107502;27;20103;-82
2023/01/21 10:19:49;;;;;;;52.85;23.30;;;1.90;99.90;;;;;;5105915;27;20051;-81
2023/01/21 10:22:20;;;;;;;59.97;24.63;;;2.80;99.90;;;;;;5104082;27;20132;-82
2023/01/21 10:24:54;;;;;;;58.90;25.15;;;3.10;99.90;;;;;;5101469;27;20055;-82
2023/01/21 10:27:22;;;;;;;48.95;23.23;;;3.40;99.90;;;;;;5104053;27;20066;-83
2023/01/21 10:30:01;;;;;;;48.55;23.42;;;3.50;99.90;;;;;;5099125;27;20077;-82
2023/01/21 10:32:27;;;;;;;44.65;20.70;;;3.70;99.90;;;;;;5133163;27;20066;-82
2023/01/21 10:34:56;;;;;;;46.67;22.00;;;3.80;99.90;;;;;;5098831;27;20071;-82
2023/01/21 10:37:47;;;;;;;44.33;21.17;;;4.60;99.90;;;;;;5105028;27;20132;-82
2023/01/21 10:40:45;;;;;;;40.67;20.55;;;5.70;99.90;;;;;;5105092;27;20069;-84
2023/01/21 10:43:37;;;;;;;38.97;20.35;;;6.00;99.90;;;;;;5116499;27;20047;-83
2023/01/21 10:46:21;;;;;;;36.45;18.52;;;6.30;99.90;;;;;;5097220;27;20042;-82
2023/01/21 10:49:21;;;;;;;37.65;18.75;;;6.50;99.90;;;;;;5106333;27;20051;-82
2023/01/21 10:51:57;;;;;;;35.78;19.05;;;8.10;99.90;;;;;;5101770;27;20124;-81
2023/01/21 10:55:09;;;;;;;;;;;;;;;;;;;;;
2023/01/21 10:58:10;;;;;;;30.50;15.93;;;8.70;99.90;;;;;;5115566;27;20051;-84
2023/01/21 11:00:46;;;;;;;28.77;16.50;;;8.70;99.90;;;;;;5100932;28;20074;-84
2023/01/21 11:03:27;;;;;;;28.08;16.10;;;8.20;99.90;;;;;;5101781;27;20054;-84
2023/01/21 11:05:53;;;;;;;23.98;14.55;;;8.10;99.90;;;;;;5099316;27;20047;-82
2023/01/21 11:08:24;;;;;;;25.52;14.90;;;8.00;99.90;;;;;;5065355;27;20051;-82
2023/01/21 11:10:54;;;;;;;25.92;14.02;;;7.70;99.90;;;;;;5084852;27;20036;-82
2023/01/21 11:13:20;;;;;;;21.83;12.45;;;7.20;99.90;;;;;;5083967;27;20043;-81
2023/01/21 11:15:53;;;;;;;19.10;12.15;;;6.90;99.90;;;;;;5099125;27;20046;-82
2023/01/21 11:18:34;;;;;;;23.80;13.27;;;6.50;99.90;;;;;;5097409;27;20127;-82
2023/01/21 11:21:18;;;;;;;20.85;12.88;;;6.30;99.90;;;;;;5100020;27;20076;-81
2023/01/21 11:23:53;;;;;;;23.98;12.85;;;5.80;99.90;;;;;;5097579;27;20061;-82
2023/01/21 11:26:35;;;;;;;22.57;12.13;;;5.70;99.90;;;;;;5093398;27;20126;-81
2023/01/21 11:29:16;;;;;;;19.88;11.73;;;5.50;99.90;;;;;;5077671;27;20397;-82
2023/01/21 11:31:50;;;;;;;20.63;11.77;;;5.40;99.90;;;;;;5100943;27;20059;-86
2023/01/21 11:34:22;;;;;;;18.77;11.32;;;5.70;99.90;;;;;;5103365;27;20406;-84
2023/01/21 11:37:03;;;;;;;18.85;11.55;;;4.70;99.90;;;;;;5087556;27;20035;-85
2023/01/21 11:39:45;;;;;;;21.45;12.55;;;5.00;99.90;;;;;;5111172;27;20047;-85
2023/01/21 11:42:25;;;;;;;21.50;11.40;;;4.70;99.90;;;;;;5106509;27;20119;-88
2023/01/21 11:45:04;;;;;;;19.42;11.77;;;4.60;99.90;;;;;;5104210;27;20043;-85
2023/01/21 11:47:45;;;;;;;21.63;12.50;;;4.60;99.90;;;;;;5096843;27;20038;-85
2023/01/21 11:50:25;;;;;;;21.60;12.52;;;4.50;99.90;;;;;;5097737;27;20506;-85
2023/01/21 11:53:10;;;;;;;21.55;11.95;;;4.40;99.90;;;;;;5107015;27;20043;-82
2023/01/21 11:55:44;;;;;;;22.35;12.43;;;4.30;99.90;;;;;;5101378;27;20137;-82
2023/01/21 11:58:42;;;;;;;20.73;11.20;;;4.30;99.90;;;;;;5097582;27;20118;-82
2023/01/21 12:01:19;;;;;;;20.42;11.63;;;4.30;99.90;;;;;;5035141;27;20464;-82
2023/01/21 12:03:52;;;;;;;19.13;11.43;;;4.10;99.90;;;;;;5098012;27;20122;-80
2023/01/21 12:06:22;;;;;;;21.30;10.88;;;4.00;99.90;;;;;;5106440;27;20533;-82
2023/01/21 12:08:50;;;;;;;23.10;12.80;;;3.90;99.90;;;;;;5105855;27;20373;-81
2023/01/21 12:11:26;;;;;;;21.45;12.32;;;3.90;99.90;;;;;;5105587;27;20046;-81
2023/01/21 12:14:16;;;;;;;21.83;11.43;;;3.80;99.90;;;;;;5105987;27;20130;-81
2023/01/21 12:17:25;;;;;;;19.23;10.50;;;3.80;99.90;;;;;;5106041;27;20304;-81
2023/01/21 12:20:21;;;;;;;18.08;10.48;;;3.70;99.90;;;;;;5061132;27;20523;-81
2023/01/21 12:22:52;;;;;;;18.38;10.73;;;3.60;99.90;;;;;;5101067;27;20084;-81
2023/01/21 12:25:49;;;;;;;15.23;9.43;;;3.60;99.90;;;;;;5103186;27;20035;-81
2023/01/21 12:28:37;;;;;;;19.27;10.52;;;3.60;99.90;;;;;;5107438;27;20119;-81
2023/01/21 12:31:28;;;;;;;17.55;10.40;;;3.80;99.90;;;;;;5115490;27;20047;-80
2023/01/21 12:34:24;;;;;;;18.55;10.23;;;3.50;99.90;;;;;;5100098;27;20051;-81
2023/01/21 12:37:31;;;;;;;19.53;10.87;;;3.50;99.90;;;;;;5109016;27;20655;-81
2023/01/21 12:40:01;;;;;;;18.45;10.70;;;3.30;99.90;;;;;;5116884;27;20057;-81
2023/01/21 12:42:32;;;;;;;16.40;9.60;;;3.40;99.90;;;;;;5097767;27;20055;-81
2023/01/21 12:45:09;;;;;;;15.43;9.77;;;3.60;99.90;;;;;;5108138;27;20090;-80
2023/01/21 12:48:02;;;;;;;17.60;10.65;;;3.50;99.90;;;;;;5107636;27;20464;-81
2023/01/21 12:50:28;;;;;;;20.30;11.23;;;3.30;99.90;;;;;;5098191;27;20051;-82
2023/01/21 12:52:58;;;;;;;18.30;10.07;;;3.30;99.90;;;;;;5106546;27;20046;-81
2023/01/21 12:55:48;;;;;;;19.10;10.52;;;3.30;99.90;;;;;;5108522;27;20035;-80
2023/01/21 12:58:19;;;;;;;19.10;10.88;;;4.20;99.90;;;;;;5099967;27;20050;-82
2023/01/21 13:00:48;;;;;;;12.02;7.55;;;3.50;99.90;;;;;;5110202;27;20058;-81
2023/01/21 13:03:39;;;;;;;15.27;8.30;;;3.20;99.90;;;;;;5108913;27;20089;-80